createdAt,value
2019-06-26T00:01:14.061Z,75.69
2019-06-26T00:03:43.917Z,75.66
2019-06-26T00:06:13.983Z,75.62
2019-06-26T00:08:43.884Z,75.64
2019-06-26T00:11:13.790Z,75.44
2019-06-26T00:13:43.719Z,75.29
2019-06-26T00:16:13.620Z,75.65
2019-06-26T00:18:43.745Z,76.08
2019-06-26T00:21:14.019Z,76.34
2019-06-26T00:23:43.914Z,77.32
2019-06-26T00:26:13.893Z,78.69
2019-06-26T00:28:43.739Z,78.82
2019-06-26T00:31:13.570Z,78.05
2019-06-26T00:33:43.493Z,77.68
2019-06-26T00:36:13.404Z,77.99
2019-06-26T00:38:43.377Z,78.15
2019-06-26T00:41:13.231Z,77.98
2019-06-26T00:43:43.220Z,78.44
2019-06-26T00:46:14.188Z,78.20
2019-06-26T00:48:44.114Z,77.90
2019-06-26T00:51:14.101Z,77.94
2019-06-26T00:53:44.069Z,77.92
2019-06-26T00:56:13.904Z,77.92
2019-06-26T00:58:43.816Z,77.92
2019-06-26T01:01:13.638Z,77.61
2019-06-26T01:03:43.594Z,77.44
2019-06-26T01:06:32.429Z,77.00
2019-06-26T01:09:02.423Z,77.00
2019-06-26T01:11:33.882Z,76.93
2019-06-26T01:14:03.878Z,76.89
2019-06-26T01:16:33.867Z,76.97
2019-06-26T01:19:03.828Z,77.21
2019-06-26T01:21:33.830Z,77.19
2019-06-26T01:24:03.724Z,76.81
2019-06-26T01:26:33.634Z,76.72
2019-06-26T01:29:03.623Z,76.79
2019-06-26T01:31:33.539Z,76.73
2019-06-26T01:34:03.504Z,76.97
2019-06-26T01:36:33.751Z,77.22
2019-06-26T01:39:05.029Z,77.44
2019-06-26T01:41:35.217Z,77.19
2019-06-26T01:44:14.618Z,77.25
2019-06-26T01:46:37.985Z,77.43
2019-06-26T01:49:07.904Z,77.78
2019-06-26T01:51:37.829Z,77.77
2019-06-26T01:54:08.868Z,77.62
2019-06-26T01:56:38.695Z,77.53
2019-06-26T01:59:08.531Z,77.82
2019-06-26T02:01:39.417Z,77.46
2019-06-26T02:04:09.433Z,77.64
2019-06-26T02:06:39.328Z,77.55
2019-06-26T02:09:09.243Z,77.64
2019-06-26T02:11:39.074Z,78.40
2019-06-26T02:14:09.056Z,78.21
2019-06-26T02:16:38.953Z,78.07
2019-06-26T02:19:10.179Z,77.86
2019-06-26T02:21:40.160Z,77.76
2019-06-26T02:24:10.096Z,77.57
2019-06-26T02:26:40.071Z,77.43
2019-06-26T02:29:10.070Z,77.35
2019-06-26T02:31:39.971Z,78.05
2019-06-26T02:34:09.894Z,78.02
2019-06-26T02:36:39.808Z,77.71
2019-06-26T02:39:09.775Z,77.78
2019-06-26T02:41:39.771Z,77.93
2019-06-26T02:44:09.611Z,78.65
2019-06-26T02:46:39.592Z,78.02
2019-06-26T02:49:09.435Z,77.75
2019-06-26T02:51:39.259Z,77.64
2019-06-26T02:54:09.267Z,77.18
2019-06-26T02:56:39.177Z,77.26
2019-06-26T02:59:09.094Z,77.43
2019-06-26T03:01:39.018Z,77.42
2019-06-26T03:04:08.999Z,77.15
2019-06-26T03:06:38.870Z,77.14
2019-06-26T03:09:08.844Z,77.42
2019-06-26T03:11:38.765Z,77.62
2019-06-26T03:14:08.659Z,77.89
2019-06-26T03:16:38.586Z,77.74
2019-06-26T03:19:08.512Z,77.20
2019-06-26T03:21:38.364Z,77.17
2019-06-26T03:24:08.346Z,77.17
2019-06-26T03:26:38.175Z,77.01
2019-06-26T03:29:08.006Z,77.30
2019-06-26T03:31:37.931Z,77.42
2019-06-26T03:34:07.830Z,77.42
2019-06-26T03:36:37.827Z,77.46
2019-06-26T03:39:08.725Z,77.44
2019-06-26T03:41:38.627Z,77.29
2019-06-26T03:44:08.543Z,77.00
2019-06-26T03:46:38.450Z,76.98
2019-06-26T03:49:08.273Z,76.83
2019-06-26T03:51:38.212Z,76.85
2019-06-26T03:54:08.109Z,76.87
2019-06-26T03:56:37.948Z,76.73
2019-06-26T03:59:07.861Z,76.55
2019-06-26T04:01:37.695Z,76.62
2019-06-26T04:04:07.590Z,76.33
2019-06-26T04:06:37.458Z,76.59
2019-06-26T04:09:07.668Z,76.19
2019-06-26T04:11:37.509Z,76.06
2019-06-26T04:14:07.486Z,75.67
2019-06-26T04:16:37.301Z,75.23
2019-06-26T04:19:07.189Z,74.91
2019-06-26T04:21:37.027Z,74.64
2019-06-26T04:24:06.855Z,74.22
2019-06-26T04:26:36.735Z,73.81
2019-06-26T04:29:07.286Z,73.59
2019-06-26T04:31:37.203Z,72.86
2019-06-26T04:34:07.108Z,72.52
2019-06-26T04:36:36.944Z,71.15
2019-06-26T04:39:07.818Z,69.31
2019-06-26T04:41:37.743Z,68.09
2019-06-26T04:44:07.648Z,66.67
2019-06-26T04:46:37.509Z,65.91
2019-06-26T04:49:07.397Z,64.75
2019-06-26T04:51:37.235Z,64.34
2019-06-26T04:54:07.150Z,63.11
2019-06-26T04:56:37.007Z,63.43
2019-06-26T04:59:06.836Z,62.77
2019-06-26T05:01:36.754Z,62.88
2019-06-26T05:04:06.600Z,62.57
2019-06-26T05:06:36.474Z,62.63
2019-06-26T05:09:08.141Z,62.07
2019-06-26T05:11:37.976Z,61.79
2019-06-26T05:14:08.075Z,61.38
2019-06-26T05:16:37.898Z,60.46
2019-06-26T05:19:08.780Z,60.29
2019-06-26T05:21:38.688Z,59.62
2019-06-26T05:24:08.704Z,59.85
2019-06-26T05:26:38.710Z,59.61
2019-06-26T05:29:08.610Z,59.71
2019-06-26T05:31:38.523Z,60.99
2019-06-26T05:34:10.934Z,62.06
2019-06-26T05:36:40.157Z,61.06
2019-06-26T05:39:10.170Z,60.45
2019-06-26T05:41:40.025Z,60.06
2019-06-26T05:44:10.055Z,60.45
2019-06-26T05:46:40.137Z,59.73
2019-06-26T05:49:10.335Z,59.93
2019-06-26T05:51:40.282Z,59.66
2019-06-26T05:54:10.118Z,58.96
2019-06-26T05:56:39.962Z,58.56
2019-06-26T05:59:09.856Z,59.16
2019-06-26T06:01:39.848Z,58.81
2019-06-26T06:04:09.859Z,58.87
2019-06-26T06:06:42.179Z,58.60
2019-06-26T06:09:11.574Z,58.17
2019-06-26T06:11:41.383Z,58.10
2019-06-26T06:14:11.254Z,58.09
2019-06-26T06:16:47.335Z,58.47
2019-06-26T06:19:13.880Z,57.99
2019-06-26T06:21:43.852Z,58.20
2019-06-26T06:24:13.686Z,58.10
2019-06-26T06:26:43.564Z,56.83
2019-06-26T06:29:13.440Z,56.53
2019-06-26T06:31:43.280Z,55.94
2019-06-26T06:34:13.166Z,55.75
2019-06-26T06:36:43.071Z,55.42
2019-06-26T06:39:12.901Z,55.14
2019-06-26T06:41:43.546Z,55.48
2019-06-26T06:44:13.614Z,54.60
2019-06-26T06:46:43.503Z,54.03
2019-06-26T06:49:13.413Z,53.90
2019-06-26T06:51:43.398Z,53.27
2019-06-26T06:54:14.398Z,53.64
2019-06-26T06:56:44.220Z,53.24
2019-06-26T06:59:14.049Z,53.34
2019-06-26T07:01:44.072Z,52.04
2019-06-26T07:04:13.925Z,50.30
2019-06-26T07:06:43.744Z,50.80
2019-06-26T07:09:13.682Z,50.82
2019-06-26T07:11:43.593Z,50.84
2019-06-26T07:14:13.594Z,50.41
2019-06-26T07:16:43.542Z,50.35
2019-06-26T07:19:13.523Z,50.90
2019-06-26T07:21:44.649Z,51.23
2019-06-26T07:24:14.635Z,50.41
2019-06-26T07:26:44.491Z,51.19
2019-06-26T07:29:14.406Z,50.86
2019-06-26T07:31:44.230Z,50.88
2019-06-26T07:34:14.115Z,51.13
2019-06-26T07:36:44.039Z,50.59
2019-06-26T07:39:13.978Z,50.40
2019-06-26T07:41:43.885Z,50.00
2019-06-26T07:44:13.780Z,50.43
2019-06-26T07:46:43.608Z,50.83
2019-06-26T07:49:13.589Z,49.90
2019-06-26T07:51:43.430Z,50.21
2019-06-26T07:54:13.331Z,50.63
2019-06-26T07:56:43.177Z,50.12
2019-06-26T07:59:13.141Z,47.82
2019-06-26T08:01:43.037Z,46.88
2019-06-26T08:04:12.945Z,46.98
2019-06-26T08:06:42.776Z,46.68
2019-06-26T08:09:12.631Z,48.72
2019-06-26T08:11:42.497Z,47.80
2019-06-26T08:14:12.474Z,47.92
2019-06-26T08:16:42.364Z,46.30
2019-06-26T08:19:12.370Z,45.64
2019-06-26T08:21:42.236Z,45.42
2019-06-26T08:24:12.140Z,45.97
2019-06-26T08:26:42.012Z,45.22
2019-06-26T08:29:12.000Z,44.82
2019-06-26T08:31:41.914Z,43.54
2019-06-26T08:34:11.806Z,43.20
2019-06-26T08:36:41.800Z,41.96
2019-06-26T08:39:12.702Z,41.56
2019-06-26T08:41:42.615Z,40.54
2019-06-26T08:44:12.526Z,41.00
2019-06-26T08:46:42.385Z,38.75
2019-06-26T08:49:24.857Z,39.49
2019-06-26T08:51:44.098Z,39.34
2019-06-26T08:54:13.971Z,40.28
2019-06-26T08:56:43.868Z,41.32
2019-06-26T08:59:13.681Z,38.76
2019-06-26T09:01:43.675Z,38.51
2019-06-26T09:04:15.089Z,38.12
2019-06-26T09:06:44.892Z,37.69
2019-06-26T09:09:14.750Z,37.34
2019-06-26T09:11:44.690Z,37.87
2019-06-26T09:14:14.602Z,37.88
2019-06-26T09:16:45.783Z,37.77
2019-06-26T09:19:15.597Z,37.38
2019-06-26T09:21:45.569Z,38.10
2019-06-26T09:24:15.419Z,39.29
2019-06-26T09:26:45.318Z,40.24
2019-06-26T09:29:15.126Z,38.48
2019-06-26T09:31:45.068Z,37.60
2019-06-26T09:34:14.923Z,38.99
2019-06-26T09:36:45.010Z,36.80
2019-06-26T09:39:14.882Z,37.83
2019-06-26T09:41:44.823Z,36.31
2019-06-26T09:44:14.728Z,36.91
2019-06-26T09:46:44.727Z,36.06
2019-06-26T09:49:14.643Z,35.82
2019-06-26T09:51:44.466Z,35.42
2019-06-26T09:54:14.304Z,36.28
2019-06-26T09:56:44.150Z,36.44
2019-06-26T09:59:13.956Z,37.56
2019-06-26T10:01:43.854Z,36.56
2019-06-26T10:04:13.950Z,36.63
2019-06-26T10:06:43.995Z,34.01
2019-06-26T10:09:13.881Z,32.53
2019-06-26T10:11:43.791Z,31.96
2019-06-26T10:14:13.747Z,32.06
2019-06-26T10:16:43.612Z,31.67
2019-06-26T10:19:13.439Z,32.05
2019-06-26T10:21:43.331Z,31.10
2019-06-26T10:24:13.159Z,31.24
2019-06-26T10:26:43.155Z,31.54
2019-06-26T10:29:13.075Z,29.38
2019-06-26T10:31:43.068Z,29.72
2019-06-26T10:34:13.054Z,28.98
2019-06-26T10:36:42.954Z,31.22
2019-06-26T10:39:12.870Z,32.12
2019-06-26T10:41:42.940Z,32.23
2019-06-26T10:44:12.854Z,31.41
2019-06-26T10:46:42.804Z,30.08
2019-06-26T10:49:25.770Z,29.16
2019-06-26T10:51:44.255Z,30.88
2019-06-26T10:54:14.069Z,30.95
2019-06-26T10:56:44.204Z,29.77
2019-06-26T10:59:14.150Z,29.55
2019-06-26T11:01:44.116Z,28.36
2019-06-26T11:04:14.009Z,29.27
2019-06-26T11:06:43.947Z,30.49
2019-06-26T11:09:13.845Z,29.59
2019-06-26T11:11:43.791Z,30.65
2019-06-26T11:14:13.793Z,30.22
2019-06-26T11:16:43.784Z,30.48
2019-06-26T11:19:13.621Z,30.88
2019-06-26T11:21:43.735Z,31.29
2019-06-26T11:24:13.638Z,32.49
2019-06-26T11:26:43.637Z,32.21
2019-06-26T11:29:13.547Z,32.29
2019-06-26T11:31:43.602Z,31.93
2019-06-26T11:34:13.414Z,31.96
2019-06-26T11:36:43.538Z,29.65
2019-06-26T11:39:13.543Z,29.53
2019-06-26T11:41:43.690Z,29.67
2019-06-26T11:44:13.760Z,28.80
2019-06-26T11:46:43.671Z,30.41
2019-06-26T11:49:13.642Z,30.26
2019-06-26T11:51:43.490Z,30.75
2019-06-26T11:54:13.394Z,30.79
2019-06-26T11:56:43.288Z,28.78
2019-06-26T11:59:14.086Z,28.90
2019-06-26T12:01:43.905Z,30.28
2019-06-26T12:04:13.899Z,27.84
2019-06-26T12:06:46.136Z,28.45
2019-06-26T12:09:15.472Z,30.33
2019-06-26T12:11:45.397Z,30.64
2019-06-26T12:14:15.316Z,30.17
2019-06-26T12:16:45.182Z,29.59
2019-06-26T12:19:18.659Z,28.12
2019-06-26T12:21:46.611Z,29.67
2019-06-26T12:24:16.436Z,31.17
2019-06-26T12:26:46.342Z,28.46
2019-06-26T12:29:16.232Z,28.17
2019-06-26T12:31:46.149Z,29.09
2019-06-26T12:34:15.982Z,28.62
2019-06-26T12:36:46.077Z,29.53
2019-06-26T12:39:15.984Z,29.73
2019-06-26T12:41:45.871Z,29.29
2019-06-26T12:44:15.771Z,29.68
2019-06-26T12:46:45.677Z,29.70
2019-06-26T12:49:15.618Z,32.45
2019-06-26T12:51:45.517Z,31.39
2019-06-26T12:54:15.368Z,32.43
2019-06-26T12:56:45.265Z,31.90
2019-06-26T12:59:15.146Z,32.42
2019-06-26T13:01:45.062Z,34.38
2019-06-26T13:04:15.049Z,32.39
2019-06-26T13:06:45.036Z,32.66
2019-06-26T13:09:14.957Z,31.18
2019-06-26T13:11:44.928Z,31.29
2019-06-26T13:14:14.786Z,30.93
2019-06-26T13:16:44.686Z,31.08
2019-06-26T13:19:14.699Z,30.93
2019-06-26T13:21:44.692Z,30.75
2019-06-26T13:24:14.513Z,31.01
2019-06-26T13:26:44.421Z,32.58
2019-06-26T13:29:15.307Z,34.50
2019-06-26T13:31:45.225Z,32.79
2019-06-26T13:34:15.067Z,33.09
2019-06-26T13:36:45.044Z,33.29
2019-06-26T13:39:15.043Z,32.30
2019-06-26T13:41:44.862Z,32.64
2019-06-26T13:44:14.781Z,32.65
2019-06-26T13:46:44.616Z,31.14
2019-06-26T13:49:16.632Z,30.91
2019-06-26T13:51:46.097Z,31.07
2019-06-26T13:54:16.051Z,31.33
2019-06-26T13:56:46.022Z,33.14
2019-06-26T13:59:15.927Z,28.96
2019-06-26T14:01:45.878Z,30.37
2019-06-26T14:04:15.763Z,31.47
2019-06-26T14:06:45.737Z,32.17
2019-06-26T14:09:16.650Z,30.51
2019-06-26T14:11:46.555Z,31.42
2019-06-26T14:14:16.550Z,30.15
2019-06-26T14:16:46.749Z,30.15
2019-06-26T14:19:16.783Z,29.29
2019-06-26T14:21:46.595Z,29.17
2019-06-26T14:24:16.417Z,30.90
2019-06-26T14:26:46.425Z,32.63
2019-06-26T14:29:20.896Z,30.36
2019-06-26T14:31:47.930Z,31.33
2019-06-26T14:34:17.750Z,29.46
2019-06-26T14:36:47.583Z,29.38
2019-06-26T14:39:17.495Z,28.86
2019-06-26T14:41:47.443Z,31.12
2019-06-26T14:44:17.393Z,30.48
2019-06-26T14:46:47.852Z,31.93
2019-06-26T14:49:17.688Z,30.97
2019-06-26T14:51:48.110Z,30.28
2019-06-26T14:54:18.233Z,30.57
2019-06-26T14:56:48.062Z,30.90
2019-06-26T14:59:17.957Z,30.68
2019-06-26T15:01:47.811Z,29.66
2019-06-26T15:04:17.720Z,28.29
2019-06-26T15:06:47.701Z,28.81
2019-06-26T15:09:17.731Z,27.84
2019-06-26T15:11:47.709Z,29.67
2019-06-26T15:14:17.578Z,30.31
2019-06-26T15:16:47.581Z,29.69
2019-06-26T15:19:17.424Z,28.78
2019-06-26T15:21:57.769Z,31.97
2019-06-26T15:24:18.803Z,29.30
2019-06-26T15:26:48.794Z,29.99
2019-06-26T15:29:18.697Z,30.40
2019-06-26T15:31:48.601Z,30.31
2019-06-26T15:34:18.439Z,30.69
2019-06-26T15:36:48.260Z,28.64
2019-06-26T15:39:18.199Z,29.62
2019-06-26T15:41:48.023Z,29.90
2019-06-26T15:44:17.947Z,30.60
2019-06-26T15:46:47.946Z,28.81
2019-06-26T15:49:17.930Z,30.25
2019-06-26T15:51:47.962Z,28.97
2019-06-26T15:54:17.883Z,29.73
2019-06-26T15:56:47.713Z,30.61
2019-06-26T15:59:17.636Z,31.04
2019-06-26T16:01:47.532Z,31.01
2019-06-26T16:04:17.459Z,31.53
2019-06-26T16:06:47.375Z,31.29
2019-06-26T16:09:18.360Z,31.28
2019-06-26T16:11:48.282Z,28.78
2019-06-26T16:14:19.213Z,27.72
2019-06-26T16:16:50.782Z,27.37
2019-06-26T16:19:21.439Z,29.12
2019-06-26T16:21:51.314Z,31.54
2019-06-26T16:24:21.227Z,27.47
2019-06-26T16:26:51.203Z,26.37
2019-06-26T16:29:21.134Z,28.40
2019-06-26T16:31:50.972Z,31.97
2019-06-26T16:34:20.888Z,30.61
2019-06-26T16:36:50.719Z,30.58
2019-06-26T16:39:22.389Z,30.69
2019-06-26T16:41:52.512Z,30.91
2019-06-26T16:44:23.536Z,30.80
2019-06-26T16:46:53.366Z,30.65
2019-06-26T16:49:23.225Z,31.60
2019-06-26T16:51:53.133Z,31.74
2019-06-26T16:54:23.033Z,30.96
2019-06-26T16:56:53.019Z,31.53
2019-06-26T16:59:22.973Z,30.46
2019-06-26T17:01:53.088Z,31.90
2019-06-26T17:04:22.944Z,31.59
2019-06-26T17:06:52.882Z,31.89
2019-06-26T17:09:22.857Z,31.40
2019-06-26T17:11:52.772Z,31.72
2019-06-26T17:14:23.378Z,30.86
2019-06-26T17:16:53.294Z,31.82
2019-06-26T17:19:24.128Z,31.92
2019-06-26T17:21:54.140Z,34.10
2019-06-26T17:24:23.988Z,32.44
2019-06-26T17:26:55.011Z,32.26
2019-06-26T17:29:24.911Z,31.47
2019-06-26T17:31:54.821Z,29.55
2019-06-26T17:34:27.144Z,30.11
2019-06-26T17:36:56.249Z,29.23
2019-06-26T17:39:26.153Z,28.34
2019-06-26T17:41:56.213Z,28.55
2019-06-26T17:44:26.209Z,27.11
2019-06-26T17:46:56.079Z,26.30
2019-06-26T17:49:26.052Z,26.92
2019-06-26T17:51:55.999Z,26.04
2019-06-26T17:54:26.911Z,27.10
2019-06-26T17:56:56.892Z,27.69
2019-06-26T17:59:26.748Z,28.01
2019-06-26T18:01:56.828Z,27.91
2019-06-26T18:04:26.772Z,29.10
2019-06-26T18:06:56.681Z,29.67
2019-06-26T18:09:26.696Z,29.62
2019-06-26T18:11:56.697Z,29.78
2019-06-26T18:14:26.712Z,30.94
2019-06-26T18:16:56.536Z,32.20
2019-06-26T18:19:26.580Z,33.34
2019-06-26T18:21:56.417Z,34.03
2019-06-26T18:24:26.322Z,35.27
2019-06-26T18:26:56.412Z,37.60
2019-06-26T18:29:26.316Z,40.46
2019-06-26T18:31:56.320Z,42.15
2019-06-26T18:34:26.235Z,43.76
2019-06-26T18:36:56.138Z,45.12
2019-06-26T18:39:25.978Z,46.10
2019-06-26T18:41:55.809Z,47.03
2019-06-26T18:44:25.726Z,47.41
2019-06-26T18:46:55.643Z,49.32
2019-06-26T18:49:25.633Z,49.41
2019-06-26T18:51:55.544Z,50.18
2019-06-26T18:54:25.522Z,50.69
2019-06-26T18:56:55.420Z,50.87
2019-06-26T18:59:25.319Z,51.36
2019-06-26T19:01:55.256Z,52.47
2019-06-26T19:04:25.266Z,53.34
2019-06-26T19:06:55.114Z,53.75
2019-06-26T19:09:25.019Z,54.16
2019-06-26T19:11:54.983Z,54.32
2019-06-26T19:14:25.224Z,54.81
2019-06-26T19:16:55.383Z,54.92
2019-06-26T19:19:25.467Z,55.41
2019-06-26T19:21:55.483Z,55.51
2019-06-26T19:24:25.332Z,55.55
2019-06-26T19:26:55.481Z,55.86
2019-06-26T19:29:25.575Z,56.33
2019-06-26T19:31:55.615Z,56.52
2019-06-26T19:34:25.546Z,56.12
2019-06-26T19:36:55.550Z,56.45
2019-06-26T19:39:25.594Z,56.72
2019-06-26T19:41:55.591Z,57.11
2019-06-26T19:44:25.629Z,57.31
2019-06-26T19:46:55.607Z,57.21
2019-06-26T19:49:25.597Z,57.54
2019-06-26T19:51:55.521Z,57.82
2019-06-26T19:54:31.049Z,58.02
2019-06-26T19:56:58.005Z,58.28
2019-06-26T19:59:28.004Z,58.44
2019-06-26T20:01:57.986Z,58.88
2019-06-26T20:04:27.977Z,59.22
2019-06-26T20:06:57.837Z,59.32
2019-06-26T20:09:27.812Z,59.35
2019-06-26T20:11:57.760Z,59.79
2019-06-26T20:14:27.790Z,59.85
2019-06-26T20:16:58.030Z,59.74
2019-06-26T20:19:27.948Z,59.77
2019-06-26T20:21:57.815Z,59.86
2019-06-26T20:24:42.763Z,59.86
2019-06-26T20:26:59.568Z,59.94
2019-06-26T20:29:29.412Z,59.92
2019-06-26T20:31:59.330Z,59.69
2019-06-26T20:34:29.445Z,59.95
2019-06-26T20:36:59.560Z,59.54
2019-06-26T20:39:29.446Z,60.31
2019-06-26T20:41:59.475Z,60.45
2019-06-26T20:44:29.517Z,60.87
2019-06-26T20:46:59.384Z,61.11
2019-06-26T20:49:29.273Z,61.15
2019-06-26T20:51:59.162Z,61.41
2019-06-26T20:54:29.014Z,61.62
2019-06-26T20:56:58.865Z,61.38
2019-06-26T20:59:28.787Z,61.25
2019-06-26T21:01:58.689Z,61.14
2019-06-26T21:04:28.612Z,60.84
2019-06-26T21:06:58.533Z,60.69
2019-06-26T21:09:28.352Z,60.81
2019-06-26T21:11:58.181Z,61.02
2019-06-26T21:14:28.150Z,61.25
2019-06-26T21:16:58.074Z,61.47
2019-06-26T21:19:28.028Z,61.69
2019-06-26T21:21:58.010Z,61.68
2019-06-26T21:24:27.944Z,61.84
2019-06-26T21:26:57.880Z,61.84
2019-06-26T21:29:27.810Z,62.03
2019-06-26T21:31:57.648Z,61.96
2019-06-26T21:34:27.475Z,61.98
2019-06-26T21:36:57.311Z,62.12
2019-06-26T21:39:28.299Z,62.36
2019-06-26T21:41:58.208Z,62.60
2019-06-26T21:44:28.157Z,62.83
2019-06-26T21:46:58.927Z,62.77
2019-06-26T21:49:28.769Z,62.84
2019-06-26T21:51:58.753Z,63.19
2019-06-26T21:54:28.593Z,62.96
2019-06-26T21:57:16.523Z,63.14
2019-06-26T22:00:05.805Z,63.46
2019-06-26T22:02:56.784Z,63.88
2019-06-26T22:05:27.172Z,64.23
2019-06-26T22:08:13.815Z,64.65
2019-06-26T22:10:45.374Z,64.95
2019-06-26T22:13:15.786Z,64.87
2019-06-26T22:15:45.928Z,64.70
2019-06-26T22:18:16.028Z,64.70
2019-06-26T22:20:46.018Z,64.93
2019-06-26T22:23:15.868Z,64.86
2019-06-26T22:25:50.844Z,64.95
2019-06-26T22:28:17.553Z,65.04
2019-06-26T22:30:47.456Z,65.21
2019-06-26T22:33:17.465Z,65.30
2019-06-26T22:35:48.580Z,65.54
2019-06-26T22:38:18.670Z,65.58
2019-06-26T22:40:48.654Z,65.57
2019-06-26T22:43:18.673Z,65.73
2019-06-26T22:45:49.203Z,65.78
2019-06-26T22:48:19.149Z,65.95
2019-06-26T22:50:49.208Z,65.85
2019-06-26T22:53:19.197Z,65.44
2019-06-26T22:56:03.531Z,65.37
2019-06-26T22:58:21.888Z,65.56
2019-06-26T23:00:51.729Z,65.58
2019-06-26T23:03:21.630Z,65.35
2019-06-26T23:05:51.659Z,65.40
2019-06-26T23:08:21.476Z,65.29
2019-06-26T23:10:51.386Z,65.18
2019-06-26T23:13:21.375Z,64.91
2019-06-26T23:15:51.950Z,64.71
2019-06-26T23:18:21.951Z,64.96
2019-06-26T23:20:51.778Z,64.91
2019-06-26T23:23:21.783Z,65.01
2019-06-26T23:25:51.687Z,65.17
2019-06-26T23:28:21.591Z,65.53
2019-06-26T23:30:51.507Z,65.74
2019-06-26T23:33:21.366Z,66.19
2019-06-26T23:35:51.702Z,66.65
2019-06-26T23:38:21.905Z,66.89
2019-06-26T23:40:52.138Z,66.96
2019-06-26T23:43:22.001Z,67.30
2019-06-26T23:45:51.976Z,67.06
2019-06-26T23:48:21.827Z,67.05
2019-06-26T23:50:52.806Z,67.33
2019-06-26T23:53:22.717Z,67.12
2019-06-26T23:55:52.563Z,67.18
2019-06-26T23:58:23.601Z,66.70
